createdAt,value
2023-04-10T00:01:35.823Z,102470.66
2023-04-10T00:04:04.893Z,102464.41
2023-04-10T00:06:33.687Z,102469.69
2023-04-10T00:09:02.062Z,102469.47
2023-04-10T00:11:31.698Z,102465.56
2023-04-10T00:13:59.937Z,102467.75
2023-04-10T00:16:28.146Z,102462.22
2023-04-10T00:18:56.379Z,102467.38
2023-04-10T00:21:24.510Z,102472.38
2023-04-10T00:23:52.897Z,102467.63
2023-04-10T00:26:23.892Z,102464.66
2023-04-10T00:28:53.714Z,102471.22
2023-04-10T00:31:21.918Z,102467.84
2023-04-10T00:33:50.307Z,102465.34
2023-04-10T00:36:20.755Z,102471.50
2023-04-10T00:38:49.784Z,102466.44
2023-04-10T00:41:17.961Z,102470.72
2023-04-10T00:43:46.491Z,102465.56
2023-04-10T00:46:16.524Z,102469.84
2023-04-10T00:48:44.850Z,102468.53
2023-04-10T00:51:13.569Z,102467.28
2023-04-10T00:53:41.850Z,102478.28
2023-04-10T00:56:10.649Z,102468.56
2023-04-10T00:58:39.443Z,102468.78
2023-04-10T01:01:08.662Z,102471.53
2023-04-10T01:03:39.613Z,102469.25
2023-04-10T01:06:17.818Z,102468.94
2023-04-10T01:08:54.608Z,102471.84
2023-04-10T01:11:31.954Z,102479.06
2023-04-10T01:14:08.528Z,102479.75
2023-04-10T01:16:43.398Z,102479.97
2023-04-10T01:19:43.166Z,102467.03
2023-04-10T01:22:13.632Z,102468.03
2023-04-10T01:25:01.931Z,102475.88
2023-04-10T01:27:45.307Z,102466.22
2023-04-10T01:30:19.583Z,102452.56
2023-04-10T01:32:48.185Z,102470.41
2023-04-10T01:35:17.917Z,102454.75
2023-04-10T01:37:49.809Z,102468.81
2023-04-10T01:40:22.433Z,102466.16
2023-04-10T01:42:54.581Z,102475.69
2023-04-10T01:45:29.740Z,102472.94
2023-04-10T01:47:58.716Z,102473.59
2023-04-10T01:50:29.089Z,102468.34
2023-04-10T01:52:58.596Z,102472.25
2023-04-10T01:55:29.374Z,102474.16
2023-04-10T01:58:04.870Z,102470.28
2023-04-10T02:00:41.748Z,102476.75
2023-04-10T02:03:11.472Z,102478.06
2023-04-10T02:05:50.367Z,102477.56
2023-04-10T02:08:24.732Z,102469.50
2023-04-10T02:10:57.588Z,102469.13
2023-04-10T02:13:29.565Z,102475.88
2023-04-10T02:16:04.197Z,102478.25
2023-04-10T02:18:35.394Z,102471.91
2023-04-10T02:21:04.426Z,102474.28
2023-04-10T02:23:32.622Z,102483.50
2023-04-10T02:26:07.820Z,102470.72
2023-04-10T02:28:36.127Z,102486.19
2023-04-10T02:31:08.407Z,102479.06
2023-04-10T02:33:36.734Z,102484.00
2023-04-10T02:36:05.370Z,102481.13
2023-04-10T02:38:33.558Z,102472.31
2023-04-10T02:41:01.971Z,102483.22
2023-04-10T02:43:30.408Z,102483.00
2023-04-10T02:46:00.106Z,102484.69
2023-04-10T02:48:34.424Z,102482.59
2023-04-10T02:51:04.811Z,102476.06
2023-04-10T02:53:34.235Z,102473.56
2023-04-10T02:56:03.760Z,102475.75
2023-04-10T02:58:32.088Z,102482.22
2023-04-10T03:01:01.808Z,102484.81
2023-04-10T03:03:41.155Z,102482.72
2023-04-10T03:06:11.148Z,102486.69
2023-04-10T03:08:41.869Z,102493.94
2023-04-10T03:11:10.049Z,102493.13
2023-04-10T03:13:38.329Z,102487.94
2023-04-10T03:16:07.234Z,102487.78
2023-04-10T03:18:35.838Z,102486.78
2023-04-10T03:21:06.469Z,102493.81
2023-04-10T03:23:34.687Z,102492.94
2023-04-10T03:26:04.708Z,102494.03
2023-04-10T03:28:38.197Z,102490.63
2023-04-10T03:31:07.255Z,102489.97
2023-04-10T03:33:37.535Z,102493.53
2023-04-10T03:36:08.387Z,102491.94
2023-04-10T03:38:36.697Z,102484.19
2023-04-10T03:41:06.890Z,102490.13
2023-04-10T03:43:36.655Z,102483.38
2023-04-10T03:46:06.192Z,102489.53
2023-04-10T03:48:36.903Z,102488.94
2023-04-10T03:51:06.270Z,102480.19
2023-04-10T03:53:36.393Z,102490.31
2023-04-10T03:56:09.846Z,102478.28
2023-04-10T03:58:38.467Z,102480.56
2023-04-10T04:01:07.750Z,102483.91
2023-04-10T04:03:51.830Z,102486.28
2023-04-10T04:06:49.593Z,102479.25
2023-04-10T04:09:51.413Z,102481.59
2023-04-10T04:12:31.550Z,102483.75
2023-04-10T04:15:25.861Z,102479.13
2023-04-10T04:18:14.386Z,102478.50
2023-04-10T04:20:48.214Z,102474.63
2023-04-10T04:23:35.514Z,102483.00
2023-04-10T04:26:34.539Z,102482.13
2023-04-10T04:29:15.489Z,102481.84
2023-04-10T04:32:00.351Z,102472.84
2023-04-10T04:34:41.016Z,102473.44
2023-04-10T04:37:32.435Z,102455.53
2023-04-10T04:40:19.556Z,102469.13
2023-04-10T04:43:18.224Z,102475.81
2023-04-10T04:46:08.788Z,102475.44
2023-04-10T04:48:56.626Z,102478.69
2023-04-10T04:51:54.385Z,102471.44
2023-04-10T04:54:41.371Z,102470.34
2023-04-10T04:57:23.426Z,102469.03
2023-04-10T05:00:16.562Z,102466.31
2023-04-10T05:03:06.946Z,102475.53
2023-04-10T05:05:53.900Z,102462.09
2023-04-10T05:08:38.611Z,102471.66
2023-04-10T05:11:12.916Z,102461.09
2023-04-10T05:14:13.595Z,102452.03
2023-04-10T05:17:03.845Z,102470.22
2023-04-10T05:20:04.967Z,102468.31
2023-04-10T05:22:56.283Z,102463.81
2023-04-10T05:25:54.047Z,102465.25
2023-04-10T05:28:37.599Z,102464.94
2023-04-10T05:31:35.422Z,102464.72
2023-04-10T05:34:21.165Z,102463.34
2023-04-10T05:37:08.986Z,102465.88
2023-04-10T05:39:42.908Z,102468.22
2023-04-10T05:42:23.715Z,102465.22
2023-04-10T05:45:08.860Z,102469.19
2023-04-10T05:47:50.771Z,102474.06
2023-04-10T05:50:37.773Z,102463.91
2023-04-10T05:53:19.175Z,102477.69
2023-04-10T05:56:17.412Z,102471.25
2023-04-10T05:59:06.603Z,102469.88
2023-04-10T06:01:53.380Z,102475.75
2023-04-10T06:04:22.650Z,102475.28
2023-04-10T06:06:55.969Z,102469.78
2023-04-10T06:09:24.276Z,102469.34
2023-04-10T06:11:53.509Z,102471.44
2023-04-10T06:14:24.468Z,102461.31
2023-04-10T06:16:52.753Z,102468.75
2023-04-10T06:19:21.095Z,102468.38
2023-04-10T06:21:49.509Z,102459.22
2023-04-10T06:24:19.076Z,102442.78
2023-04-10T06:26:49.176Z,102459.22
2023-04-10T06:29:17.547Z,102464.91
2023-04-10T06:31:45.840Z,102451.38
2023-04-10T06:34:14.502Z,102458.81
2023-04-10T06:36:53.132Z,102457.63
2023-04-10T06:39:23.532Z,102452.81
2023-04-10T06:41:51.652Z,102456.81
2023-04-10T06:44:34.720Z,102450.44
2023-04-10T06:47:03.159Z,102459.75
2023-04-10T06:49:31.327Z,102446.94
2023-04-10T06:51:59.494Z,102458.63
2023-04-10T06:54:29.190Z,102449.28
2023-04-10T06:56:59.013Z,102451.41
2023-04-10T06:59:27.330Z,102451.72
2023-04-10T07:01:55.635Z,102452.94
2023-04-10T07:04:23.815Z,102445.50
2023-04-10T07:06:52.175Z,102440.69
2023-04-10T07:09:20.420Z,102445.56
2023-04-10T07:11:50.039Z,102448.28
2023-04-10T07:14:18.237Z,102450.28
2023-04-10T07:16:46.674Z,102449.75
2023-04-10T07:19:14.819Z,102457.91
2023-04-10T07:21:43.072Z,102460.75
2023-04-10T07:24:11.612Z,102454.78
2023-04-10T07:26:39.877Z,102455.91
2023-04-10T07:29:09.478Z,102464.03
2023-04-10T07:31:37.735Z,102459.94
2023-04-10T07:34:06.423Z,102462.84
2023-04-10T07:36:34.741Z,102457.00
2023-04-10T07:39:02.929Z,102453.66
2023-04-10T07:41:31.249Z,102452.97
2023-04-10T07:43:59.511Z,102450.63
2023-04-10T07:46:29.271Z,102447.34
2023-04-10T07:48:57.560Z,102449.38
2023-04-10T07:51:26.022Z,102444.31
2023-04-10T07:53:54.246Z,102447.19
2023-04-10T07:56:23.404Z,102444.66
2023-04-10T07:58:53.098Z,102436.91
2023-04-10T08:01:21.581Z,102450.94
2023-04-10T08:03:52.149Z,102436.19
2023-04-10T08:06:20.491Z,102417.88
2023-04-10T08:08:49.064Z,102440.19
2023-04-10T08:11:25.830Z,102429.81
2023-04-10T08:13:54.617Z,102424.78
2023-04-10T08:16:25.109Z,102437.31
2023-04-10T08:18:55.915Z,102434.91
2023-04-10T08:21:24.963Z,102426.34
2023-04-10T08:23:54.174Z,102431.78
2023-04-10T08:26:22.798Z,102424.09
2023-04-10T08:28:52.621Z,102414.59
2023-04-10T08:31:22.899Z,102425.38
2023-04-10T08:33:52.124Z,102423.78
2023-04-10T08:36:21.989Z,102419.63
2023-04-10T08:38:50.314Z,102417.16
2023-04-10T08:41:19.764Z,102418.31
2023-04-10T08:43:49.761Z,102407.94
2023-04-10T08:46:18.234Z,102402.81
2023-04-10T08:48:49.669Z,102407.38
2023-04-10T08:51:26.060Z,102403.19
2023-04-10T08:54:04.805Z,102405.88
2023-04-10T08:56:34.599Z,102393.56
2023-04-10T08:59:03.584Z,102398.09
2023-04-10T09:01:32.552Z,102404.38
2023-04-10T09:04:01.416Z,102391.28
2023-04-10T09:06:31.544Z,102388.78
2023-04-10T09:12:04.332Z,102390.72
2023-04-10T09:14:34.660Z,102382.94
2023-04-10T09:17:17.333Z,102383.91
2023-04-10T09:19:46.592Z,102375.22
2023-04-10T09:22:16.872Z,102373.50
2023-04-10T09:24:47.464Z,102378.88
2023-04-10T09:27:31.303Z,102369.19
2023-04-10T09:30:00.182Z,102384.19
2023-04-10T09:32:39.707Z,102371.09
2023-04-10T09:35:09.055Z,102377.28
2023-04-10T09:37:40.509Z,102366.75
2023-04-10T09:40:21.693Z,102369.44
2023-04-10T09:42:50.056Z,102373.88
2023-04-10T09:45:20.203Z,102367.72
2023-04-10T09:48:03.432Z,102363.34
2023-04-10T09:50:38.865Z,102366.88
2023-04-10T09:53:09.697Z,102366.00
2023-04-10T09:55:38.312Z,102366.91
2023-04-10T09:58:07.231Z,102366.03
2023-04-10T10:00:41.149Z,102362.50
2023-04-10T10:03:11.448Z,102355.47
2023-04-10T10:05:41.617Z,102356.34
2023-04-10T10:08:12.605Z,102351.94
2023-04-10T10:10:46.118Z,102344.88
2023-04-10T10:13:19.068Z,102348.41
2023-04-10T10:15:56.146Z,102340.47
2023-04-10T10:18:33.745Z,102336.94
2023-04-10T10:21:03.757Z,102344.84
2023-04-10T10:23:34.468Z,102340.47
2023-04-10T10:26:06.496Z,102342.22
2023-04-10T10:28:35.268Z,102336.06
2023-04-10T10:31:04.777Z,102332.53
2023-04-10T10:33:36.690Z,102328.97
2023-04-10T10:36:05.747Z,102330.69
2023-04-10T10:38:36.032Z,102320.09
2023-04-10T10:41:12.561Z,102320.94
2023-04-10T10:43:56.682Z,102319.13
2023-04-10T10:46:35.298Z,102315.59
2023-04-10T10:49:03.593Z,102312.88
2023-04-10T10:51:45.501Z,102312.81
2023-04-10T10:57:44.621Z,102303.97
2023-04-10T11:00:13.638Z,102310.03
2023-04-10T11:02:41.962Z,102294.78
2023-04-10T11:05:10.367Z,102290.94
2023-04-10T11:08:10.878Z,102274.72
2023-04-10T11:11:01.218Z,102282.81
2023-04-10T11:13:31.358Z,102273.47
2023-04-10T11:16:00.532Z,102280.63
2023-04-10T11:22:04.137Z,102272.16
2023-04-10T11:24:54.034Z,102267.72
2023-04-10T11:27:48.652Z,102256.84
2023-04-10T11:30:37.866Z,102259.44
2023-04-10T11:33:06.965Z,102248.22
2023-04-10T11:35:35.605Z,102248.63
2023-04-10T11:38:15.268Z,102247.22
2023-04-10T11:41:05.408Z,102251.34
2023-04-10T11:43:35.354Z,102246.50
2023-04-10T11:46:07.561Z,102242.06
2023-04-10T11:48:36.992Z,102227.69
2023-04-10T11:51:09.482Z,102239.16
2023-04-10T11:53:37.732Z,102237.97
2023-04-10T11:56:07.604Z,102233.31
2023-04-10T11:58:35.880Z,102224.50
2023-04-10T12:01:06.216Z,102218.09
2023-04-10T12:03:39.450Z,102215.13
2023-04-10T12:06:11.270Z,102217.53
2023-04-10T12:08:40.874Z,102213.28
2023-04-10T12:11:11.752Z,102213.16
2023-04-10T12:13:40.532Z,102213.72
2023-04-10T12:16:11.896Z,102213.09
2023-04-10T12:18:40.417Z,102207.44
2023-04-10T12:21:09.126Z,102193.16
2023-04-10T12:23:42.358Z,102194.72
2023-04-10T12:26:15.829Z,102194.22
2023-04-10T12:28:52.567Z,102190.47
2023-04-10T12:31:29.157Z,102181.47
2023-04-10T12:33:58.174Z,102185.94
2023-04-10T12:36:29.358Z,102194.41
2023-04-10T12:38:58.423Z,102190.66
2023-04-10T12:41:28.279Z,102188.13
2023-04-10T12:44:08.654Z,102172.91
2023-04-10T12:46:39.233Z,102182.69
2023-04-10T12:49:12.338Z,102178.72
2023-04-10T12:51:44.819Z,102180.53
2023-04-10T12:54:13.320Z,102175.03
2023-04-10T12:56:47.461Z,102180.25
2023-04-10T12:59:15.878Z,102182.44
2023-04-10T13:01:45.658Z,102184.69
2023-04-10T13:04:13.989Z,102183.28
2023-04-10T13:06:46.094Z,102177.50
2023-04-10T13:09:15.722Z,102189.28
2023-04-10T13:11:45.255Z,102180.66
2023-04-10T13:14:14.256Z,102177.25
2023-04-10T13:16:42.549Z,102186.38
2023-04-10T13:19:13.017Z,102175.47
2023-04-10T13:21:41.391Z,102173.03
2023-04-10T13:24:09.534Z,102173.31
2023-04-10T13:26:37.802Z,102173.47
2023-04-10T13:29:05.977Z,102179.59
2023-04-10T13:31:34.375Z,102178.66
2023-04-10T13:34:02.558Z,102180.44
2023-04-10T13:36:32.780Z,102181.19
2023-04-10T13:39:00.954Z,102185.56
2023-04-10T13:41:29.141Z,102180.25
2023-04-10T13:43:57.374Z,102177.63
2023-04-10T13:46:26.962Z,102184.69
2023-04-10T13:48:55.262Z,102171.25
2023-04-10T13:51:23.916Z,102178.25
2023-04-10T13:53:53.520Z,102180.13
2023-04-10T13:56:21.695Z,102170.41
2023-04-10T13:58:50.492Z,102168.78
2023-04-10T14:01:18.716Z,102169.78
2023-04-10T14:03:47.005Z,102169.84
2023-04-10T14:06:15.501Z,102171.56
2023-04-10T14:08:43.715Z,102168.81
2023-04-10T14:11:13.232Z,102155.53
2023-04-10T14:13:41.661Z,102162.69
2023-04-10T14:16:09.954Z,102163.56
2023-04-10T14:18:38.418Z,102167.16
2023-04-10T14:21:07.270Z,102155.88
2023-04-10T14:23:35.387Z,102165.59
2023-04-10T14:26:03.726Z,102175.38
2023-04-10T14:28:33.366Z,102173.69
2023-04-10T14:31:01.934Z,102166.59
2023-04-10T14:33:30.181Z,102162.16
2023-04-10T14:35:58.466Z,102169.25
2023-04-10T14:38:26.670Z,102166.66
2023-04-10T14:40:54.875Z,102160.56
2023-04-10T14:43:23.055Z,102159.69
2023-04-10T14:45:52.630Z,102164.13
2023-04-10T14:48:21.336Z,102172.97
2023-04-10T14:50:49.773Z,102165.06
2023-04-10T14:53:18.144Z,102165.00
2023-04-10T14:55:46.282Z,102159.66
2023-04-10T14:58:14.475Z,102149.13
2023-04-10T15:00:43.744Z,102156.22
2023-04-10T15:03:13.395Z,102156.25
2023-04-10T15:05:41.622Z,102164.22
2023-04-10T15:08:10.005Z,102154.59
2023-04-10T15:10:38.150Z,102150.22
2023-04-10T15:13:06.327Z,102156.41
2023-04-10T15:15:34.523Z,102152.00
2023-04-10T15:18:02.769Z,102150.19
2023-04-10T15:20:32.342Z,102144.91
2023-04-10T15:23:01.676Z,102142.22
2023-04-10T15:25:29.945Z,102155.41
2023-04-10T15:27:59.763Z,102152.75
2023-04-10T15:30:29.712Z,102143.94
2023-04-10T15:32:57.890Z,102143.91
2023-04-10T15:35:27.991Z,102147.28
2023-04-10T15:37:58.354Z,102141.84
2023-04-10T15:40:26.615Z,102141.75
2023-04-10T15:42:54.797Z,102138.13
2023-04-10T15:45:23.328Z,102137.06
2023-04-10T15:47:51.568Z,102132.44
2023-04-10T15:50:19.932Z,102140.84
2023-04-10T15:52:48.092Z,102146.59
2023-04-10T15:55:17.939Z,102139.19
2023-04-10T15:57:46.277Z,102132.69
2023-04-10T16:00:16.075Z,102141.97
2023-04-10T16:02:44.374Z,102141.00
2023-04-10T16:05:13.825Z,102146.09
2023-04-10T16:07:44.002Z,102150.22
2023-04-10T16:10:26.560Z,102143.78
2023-04-10T16:13:25.502Z,102146.88
2023-04-10T16:15:57.909Z,102150.09
2023-04-10T16:18:26.028Z,102144.50
2023-04-10T16:20:54.312Z,102145.81
2023-04-10T16:23:22.512Z,102152.25
2023-04-10T16:25:52.055Z,102146.09
2023-04-10T16:28:20.182Z,102154.50
2023-04-10T16:30:48.430Z,102149.91
2023-04-10T16:33:16.535Z,102161.09
2023-04-10T16:35:44.761Z,102156.56
2023-04-10T16:38:12.960Z,102154.69
2023-04-10T16:40:41.104Z,102154.63
2023-04-10T16:43:11.218Z,102155.53
2023-04-10T16:45:39.700Z,102153.75
2023-04-10T16:48:07.943Z,102152.00
2023-04-10T16:50:36.356Z,102156.50
2023-04-10T16:53:04.720Z,102150.56
2023-04-10T16:55:32.994Z,102145.38
2023-04-10T16:58:01.193Z,102146.38
2023-04-10T17:00:31.026Z,102144.69
2023-04-10T17:03:00.243Z,102144.00
2023-04-10T17:05:35.513Z,102138.03
2023-04-10T17:08:05.293Z,102142.22
2023-04-10T17:10:33.505Z,102143.03
2023-04-10T17:13:01.846Z,102137.53
2023-04-10T17:15:31.628Z,102130.19
2023-04-10T17:17:59.848Z,102138.66
2023-04-10T17:20:28.410Z,102128.88
2023-04-10T17:22:56.615Z,102133.06
2023-04-10T17:25:24.829Z,102141.47
2023-04-10T17:27:53.102Z,102137.16
2023-04-10T17:30:21.306Z,102139.75
2023-04-10T17:32:51.110Z,102138.09
2023-04-10T17:35:19.410Z,102140.69
2023-04-10T17:37:47.676Z,102142.38
2023-04-10T17:40:17.070Z,102143.88
2023-04-10T17:42:45.361Z,102142.75
2023-04-10T17:45:13.899Z,102141.31
2023-04-10T17:47:42.234Z,102141.56
2023-04-10T17:50:12.478Z,102135.19
2023-04-10T17:52:40.950Z,102133.44
2023-04-10T17:55:10.093Z,102140.25
2023-04-10T17:57:38.453Z,102134.66
2023-04-10T18:00:09.479Z,102122.06
2023-04-10T18:02:37.898Z,102130.16
2023-04-10T18:05:07.177Z,102141.97
2023-04-10T18:07:36.792Z,102136.34
2023-04-10T18:10:05.497Z,102135.97
2023-04-10T18:12:33.765Z,102123.38
2023-04-10T18:15:01.964Z,102126.63
2023-04-10T18:17:31.868Z,102131.47
2023-04-10T18:20:00.642Z,102129.28
2023-04-10T18:22:29.756Z,102122.75
2023-04-10T18:24:59.347Z,102119.94
2023-04-10T18:27:30.532Z,102120.53
2023-04-10T18:29:59.181Z,102124.59
2023-04-10T18:32:27.381Z,102117.59
2023-04-10T18:34:55.831Z,102117.53
2023-04-10T18:37:23.972Z,102120.94
2023-04-10T18:39:52.184Z,102118.94
2023-04-10T18:42:21.725Z,102118.72
2023-04-10T18:44:49.942Z,102116.84
2023-04-10T18:47:18.358Z,102124.50
2023-04-10T18:49:46.534Z,102117.34
2023-04-10T18:52:14.720Z,102113.06
2023-04-10T18:54:45.306Z,102109.56
2023-04-10T18:57:14.072Z,102116.50
2023-04-10T18:59:43.620Z,102112.13
2023-04-10T19:02:12.087Z,102118.22
2023-04-10T19:04:41.670Z,102115.63
2023-04-10T19:07:10.176Z,102116.34
2023-04-10T19:09:38.310Z,102114.44
2023-04-10T19:12:06.641Z,102112.50
2023-04-10T19:14:36.986Z,102110.66
2023-04-10T19:17:07.015Z,102108.84
2023-04-10T19:19:35.253Z,102106.03
2023-04-10T19:22:03.445Z,102104.09
2023-04-10T19:24:33.346Z,102099.66
2023-04-10T19:27:02.695Z,102099.44
2023-04-10T19:29:31.291Z,102095.13
2023-04-10T19:31:59.506Z,102089.81
2023-04-10T19:34:29.300Z,102087.91
2023-04-10T19:36:57.565Z,102089.63
2023-04-10T19:39:25.847Z,102087.22
2023-04-10T19:41:56.230Z,102091.06
2023-04-10T19:44:24.605Z,102091.88
2023-04-10T19:46:52.915Z,102085.56
2023-04-10T19:49:21.169Z,102087.69
2023-04-10T19:51:50.840Z,102083.03
2023-04-10T19:54:19.073Z,102077.75
2023-04-10T19:56:47.246Z,102070.69
2023-04-10T19:59:15.550Z,102076.81
2023-04-10T20:01:43.973Z,102074.09
2023-04-10T20:04:12.487Z,102073.94
2023-04-10T20:06:43.049Z,102075.59
2023-04-10T20:09:12.751Z,102063.22
2023-04-10T20:11:41.022Z,102068.28
2023-04-10T20:14:09.322Z,102065.63
2023-04-10T20:16:38.935Z,102056.94
2023-04-10T20:19:07.259Z,102055.16
2023-04-10T20:21:35.776Z,102050.56
2023-04-10T20:24:04.091Z,102049.28
2023-04-10T20:26:33.904Z,102044.69
2023-04-10T20:29:02.258Z,102053.22
2023-04-10T20:31:32.129Z,102048.16
2023-04-10T20:34:01.580Z,102039.53
2023-04-10T20:36:29.871Z,102046.53
2023-04-10T20:38:58.108Z,102042.28
2023-04-10T20:41:26.430Z,102039.88
2023-04-10T20:43:57.512Z,102035.56
2023-04-10T20:46:27.433Z,102038.91
2023-04-10T20:48:56.992Z,102038.16
2023-04-10T20:51:25.378Z,102041.56
2023-04-10T20:53:53.644Z,102037.84
2023-04-10T20:56:32.755Z,102035.13
2023-04-10T20:59:10.069Z,102017.72
2023-04-10T21:01:38.595Z,102018.41
2023-04-10T21:04:07.117Z,102034.09
2023-04-10T21:06:35.660Z,102029.69
2023-04-10T21:09:03.987Z,102037.41
2023-04-10T21:11:32.331Z,102026.00
2023-04-10T21:14:00.536Z,102016.97
2023-04-10T21:16:31.193Z,102027.41
2023-04-10T21:18:59.527Z,102026.53
2023-04-10T21:21:27.946Z,102015.88
2023-04-10T21:23:56.218Z,102015.00
2023-04-10T21:26:24.370Z,102010.56
2023-04-10T21:28:52.825Z,102000.81
2023-04-10T21:31:21.410Z,102019.03
2023-04-10T21:33:51.048Z,102007.97
2023-04-10T21:36:19.212Z,102008.25
2023-04-10T21:38:47.474Z,102008.22
2023-04-10T21:41:16.181Z,102001.22
2023-04-10T21:43:44.480Z,101996.81
2023-04-10T21:46:12.717Z,101999.41
2023-04-10T21:48:41.631Z,101997.44
2023-04-10T21:51:11.235Z,102000.97
2023-04-10T21:53:39.513Z,102002.53
2023-04-10T21:56:08.428Z,102000.56
2023-04-10T21:58:38.106Z,101996.53
2023-04-10T22:01:08.072Z,101990.13
2023-04-10T22:03:36.613Z,101999.44
2023-04-10T22:06:05.109Z,101999.03
2023-04-10T22:08:34.719Z,101992.69
2023-04-10T22:11:02.883Z,101990.91
2023-04-10T22:13:31.453Z,101982.03
2023-04-10T22:16:02.968Z,101992.38
2023-04-10T22:18:31.488Z,101981.97
2023-04-10T22:20:59.840Z,101980.94
2023-04-10T22:23:28.120Z,101972.75
2023-04-10T22:26:00.250Z,101982.34
2023-04-10T22:28:28.912Z,101981.28
2023-04-10T22:30:57.229Z,101984.66
2023-04-10T22:33:25.591Z,101977.66
2023-04-10T22:35:54.348Z,101982.81
2023-04-10T22:38:22.660Z,101981.88
2023-04-10T22:40:50.896Z,101977.50
2023-04-10T22:43:20.495Z,101974.09
2023-04-10T22:45:48.845Z,101970.41
2023-04-10T22:48:17.177Z,101965.38
2023-04-10T22:50:45.585Z,101970.56
2023-04-10T22:53:13.865Z,101966.84
2023-04-10T22:55:42.135Z,101962.63
2023-04-10T22:58:10.488Z,101961.78
2023-04-10T23:00:40.067Z,101962.47
2023-04-10T23:03:08.513Z,101955.91
2023-04-10T23:05:36.863Z,101955.91
2023-04-10T23:08:05.159Z,101958.72
2023-04-10T23:10:33.368Z,101941.63
2023-04-10T23:13:01.816Z,101955.41
2023-04-10T23:15:30.116Z,101950.44
2023-04-10T23:18:00.007Z,101948.00
2023-04-10T23:20:28.498Z,101951.69
2023-04-10T23:22:57.522Z,101943.13
2023-04-10T23:25:25.835Z,101951.09
2023-04-10T23:27:54.031Z,101942.44
2023-04-10T23:30:22.204Z,101938.63
2023-04-10T23:32:50.375Z,101946.47
2023-04-10T23:35:20.176Z,101943.78
2023-04-10T23:37:48.317Z,101937.50
2023-04-10T23:40:16.838Z,101936.53
2023-04-10T23:42:45.094Z,101941.72
2023-04-10T23:45:13.524Z,101938.34
2023-04-10T23:47:41.724Z,101941.72
2023-04-10T23:50:10.893Z,101938.16
2023-04-10T23:52:40.497Z,101936.47
2023-04-10T23:55:09.305Z,101928.56
2023-04-10T23:57:37.462Z,101931.09
